Portada
METAR-TAF:

METAR-TAF

Aeropuertos :

Aeropuerto Internacional Hato

Curazao, Antillas Neerlandesas

latitud: 12-12N, longitud: 068-58W, altitud: 9 m

Observación

El informe se hizo hace 44 minutos, a las 19:00 UTC
Viento 15 kt del este
Temperatura 30°C
Humedad 66%
Presión 1013 hPa
Visibilidad 10 km o más

METAR: TNCC 211900Z AUTO 10015KT 9999 NCD 30/23 Q1013

Hora: 15:44 (19:44 UTC)

Pronóstico

El informe se hizo hace 3 horas y 54 minutos, a las 15:50 UTC
Pronóstico válido del 21 a las 18 UTC al 22 a las 18 UTC
Viento 15 kt del este-sureste con ráfagas de 26 kt
Visibilidad 10 km o más
Nubes dispersas a una altura de 2200 ft
Evolucionando progresivamente
del 22 a las 04 UTC al 22 a las 06 UTC
Viento 12 kt del este-sureste

TAF: TNCC 211550Z 2118/2218 12015G26KT 9999 SCT022 BECMG 2204/2206 12012KT

Observaciones y pronósticos meteorológicos de más de 4000 aeropuertos (mensajes METAR y TAF).

Los puntos amarillos y rojos representan las estaciones disponibles.

Ponga el ratón en el punto deseado para ver el nombre de la estación.

Haga clic para ver las observaciones y los pronósticos meteorológicos.

Para cambiar el mapa : haga clic en los botones verdes con una cruz de color negro para hacer un zoom, en el botón verde con un guión para alejar o en las flechas verdes para mapas adyacentes.


METAR-TAF: